Ross, North Dakota
Current Conditions -  °F | °C
As of 4:55 PM on Monday 24 Nov 2014 (Local Time) from K08D Reporting Station
Overcast Overcast  
Wind Chill: 12°   Ceiling: 4100
Heat Index: 23°   Visibility: 10mi
Dew Point: 18°   Wind: 10mph
Humidity: 80%   Direction: 260°W
Pressure: 29.94"   Gusts: NA
Location:  48.31°N, 102.55°W
Report Text: K08D 242255Z AUTO 26009KT 10SM BKN041 OVC055 M05/M08 A2994 RMK AO2
Loading
Personal Weather Stations






























Interactive Weather Map New forecast layout! Learn more

10-Day Weather Forecast

Advertisements
Track Severe Weather on mobile